EGFF/CWL METAR and TAF weather

Enter ICAO airport designator
Station Type Date Time Source
EGFF METAR 2018/10/21 03:50 UTC NOAA

EGFF 210350Z 32004KT 9999 MIFG NSC 09/09 Q1028


Station Type Date Time Source
EGFF Decoded METAR 2018/10/21 03:50 UTC NOAA

Cardiff-Wales Airport, United Kingdom (EGFF) 51-24N 003-21W 0M
Oct 20, 2018 - 11:50 PM EDT / 2018.10.21 0350 UTC
Wind: from the NW (320 degrees) at 5 MPH (4 KT):0
Visibility: greater than 7 mile(s):0
Weather: shallow fog
Temperature: 48 F (9 C)
Dew Point: 48 F (9 C)
Relative Humidity: 100%
Pressure (altimeter): 30.36 in. Hg (1028 hPa)
ob: EGFF 210350Z 32004KT 9999 MIFG NSC 09/09 Q1028
cycle: 4

Station Type Date Time Source
EGFF TAF 2018/10/21 03:42 UTC NOAA

TAF
AMD EGFF 210338Z 2103/2124 34004KT CAVOK PROB30 2103/2110 0200 FG
BECMG 2110/2112 27010KT FEW008 BKN022
TEMPO 2115/2121 6000 RA FEW004 BKN008
BECMG 2118/2121 01008KT
BECMG 2121/2124 CAVOK


Example: see airport list